Time;durP1;ratioP1;P1;durP2;ratioP2;P2;SDS_P1;SDS_P2;PMS_P1;PMS_P2;Temp;Humidity;BMP_temperature;BMP_pressure;BME280_temperature;BME280_humidity;BME280_pressure;Samples;Min_cycle;Max_cycle;Signal;HPM_P1;HPM_P2
2022/01/02 00:01:29;;;;;;;3.43;3.13;;;13.30;99.90;;;;;;5007983;28;20611;-78
2022/01/02 00:03:59;;;;;;;4.90;3.40;;;13.20;99.90;;;;;;4990594;28;20620;-78
2022/01/02 00:06:27;;;;;;;3.87;2.97;;;13.20;99.90;;;;;;4985535;28;20664;-76
2022/01/02 00:09:03;;;;;;;8.03;3.13;;;13.20;99.90;;;;;;4984711;28;20711;-78
2022/01/02 00:11:28;;;;;;;4.57;3.20;;;13.20;99.90;;;;;;4988969;28;21008;-77
2022/01/02 00:14:02;;;;;;;3.23;2.93;;;13.20;99.90;;;;;;4987377;28;20628;-77
2022/01/02 00:16:31;;;;;;;4.27;3.63;;;13.20;99.90;;;;;;4988325;28;20315;-77
2022/01/02 00:19:07;;;;;;;5.20;3.20;;;13.20;99.90;;;;;;5004989;28;20648;-77
2022/01/02 00:21:38;;;;;;;4.10;3.20;;;13.20;99.90;;;;;;4993131;28;20600;-76
2022/01/02 00:24:07;;;;;;;3.13;2.83;;;13.20;99.90;;;;;;4987254;28;20621;-78
2022/01/02 00:26:39;;;;;;;2.87;2.67;;;13.20;99.90;;;;;;5005381;28;20649;-79
2022/01/02 00:29:08;;;;;;;5.07;2.83;;;13.20;99.90;;;;;;5005281;28;21008;-78
2022/01/02 00:31:34;;;;;;;3.53;3.23;;;13.20;99.90;;;;;;4988711;28;20755;-77
2022/01/02 00:34:00;;;;;;;3.27;2.73;;;13.20;99.90;;;;;;5005790;28;20704;-78
2022/01/02 00:36:26;;;;;;;3.50;2.93;;;13.20;99.90;;;;;;5002529;28;20750;-77
2022/01/02 00:39:00;;;;;;;4.30;2.80;;;13.20;99.90;;;;;;5003398;28;20727;-78
2022/01/02 00:41:34;;;;;;;5.17;2.60;;;13.20;99.90;;;;;;5000275;28;20780;-77
2022/01/02 00:44:09;;;;;;;3.67;3.10;;;13.20;99.90;;;;;;5002320;28;21130;-79
2022/01/02 00:46:53;;;;;;;5.70;3.53;;;13.20;99.90;;;;;;5003038;28;20649;-77
2022/01/02 00:49:28;;;;;;;5.40;2.90;;;13.20;99.90;;;;;;4972210;28;20759;-78
2022/01/02 00:52:05;;;;;;;3.57;3.00;;;13.20;99.90;;;;;;5001862;28;20616;-78
2022/01/02 00:54:34;;;;;;;3.57;3.27;;;13.20;99.90;;;;;;4991093;28;20635;-78
2022/01/02 00:57:05;;;;;;;3.80;3.20;;;13.10;99.90;;;;;;4988553;28;21257;-78
2022/01/02 01:00:00;;;;;;;4.40;3.47;;;13.20;99.90;;;;;;5002039;28;20993;-77
2022/01/02 01:02:33;;;;;;;3.70;3.23;;;13.20;99.90;;;;;;4992152;28;20752;-78
2022/01/02 01:05:04;;;;;;;3.83;3.40;;;13.10;99.90;;;;;;4988117;28;20752;-77
2022/01/02 01:07:33;;;;;;;4.40;3.30;;;13.10;99.90;;;;;;4998236;28;20747;-79
2022/01/02 01:10:02;;;;;;;4.90;3.77;;;13.10;99.90;;;;;;5013654;28;20648;-78
2022/01/02 01:12:27;;;;;;;4.10;3.43;;;13.00;99.90;;;;;;5006424;28;20692;-79
2022/01/02 01:14:55;;;;;;;3.63;3.33;;;13.00;99.90;;;;;;5012542;28;21316;-78
2022/01/02 01:17:21;;;;;;;5.00;3.90;;;13.00;99.90;;;;;;5006700;28;20209;-78
2022/01/02 01:19:51;;;;;;;4.60;3.80;;;13.00;99.90;;;;;;4984640;28;20663;-77
2022/01/02 01:22:17;;;;;;;4.10;3.70;;;13.00;99.90;;;;;;4987138;28;20256;-78
2022/01/02 01:24:42;;;;;;;4.90;3.47;;;13.00;99.90;;;;;;4986740;28;21278;-78
2022/01/02 01:27:09;;;;;;;4.70;3.73;;;13.00;99.90;;;;;;5001579;28;20283;-78
2022/01/02 01:29:38;;;;;;;4.53;3.63;;;13.00;99.90;;;;;;4987710;28;20241;-77
2022/01/02 01:32:05;;;;;;;4.40;4.00;;;13.00;99.90;;;;;;4978591;28;20861;-77
2022/01/02 01:34:34;;;;;;;5.20;3.63;;;13.00;99.90;;;;;;4989991;28;20632;-77
2022/01/02 01:37:00;;;;;;;4.50;4.10;;;13.00;99.90;;;;;;5001232;28;20694;-78
2022/01/02 01:39:25;;;;;;;5.10;3.90;;;13.00;99.90;;;;;;5000568;28;20652;-76
2022/01/02 01:41:54;;;;;;;5.30;3.70;;;13.00;99.90;;;;;;5004064;28;20739;-77
2022/01/02 01:44:28;;;;;;;4.00;3.70;;;12.90;99.90;;;;;;5003243;28;20193;-77
2022/01/02 01:46:56;;;;;;;4.70;4.10;;;12.80;99.90;;;;;;5007151;28;20740;-77
2022/01/02 01:49:25;;;;;;;4.30;3.90;;;12.80;99.90;;;;;;5004717;28;20651;-76
2022/01/02 01:51:52;;;;;;;4.83;4.30;;;12.80;99.90;;;;;;5003555;28;20932;-77
2022/01/02 01:54:17;;;;;;;5.33;4.50;;;12.80;99.90;;;;;;4990884;28;21019;-77
2022/01/02 01:56:49;;;;;;;5.07;4.10;;;12.80;99.90;;;;;;4991114;28;20660;-76
2022/01/02 01:59:16;;;;;;;4.80;4.10;;;12.80;99.90;;;;;;5000755;28;20316;-78
2022/01/02 02:01:41;;;;;;;7.10;4.70;;;12.80;99.90;;;;;;5006861;28;20739;-77
2022/01/02 02:04:07;;;;;;;5.23;4.80;;;12.80;99.90;;;;;;4998575;28;21136;-77
2022/01/02 02:06:40;;;;;;;6.83;4.90;;;12.80;99.90;;;;;;4984596;28;20228;-78
2022/01/02 02:09:08;;;;;;;5.67;4.40;;;12.70;99.90;;;;;;4989346;28;20648;-76
2022/01/02 02:11:49;;;;;;;4.73;4.17;;;12.70;99.90;;;;;;5003169;28;20695;-77
2022/01/02 02:14:16;;;;;;;6.63;4.57;;;12.70;99.90;;;;;;5000373;28;20642;-77
2022/01/02 02:16:42;;;;;;;4.97;4.10;;;12.70;99.90;;;;;;4995872;28;20649;-78
2022/01/02 02:19:12;;;;;;;7.13;4.87;;;12.50;99.90;;;;;;5007045;28;20713;-77
2022/01/02 02:21:38;;;;;;;5.70;4.70;;;12.40;99.90;;;;;;5005545;28;20189;-78
2022/01/02 02:24:07;;;;;;;5.40;4.70;;;12.30;99.90;;;;;;4989722;28;20632;-78
2022/01/02 02:26:34;;;;;;;7.10;4.67;;;12.40;99.90;;;;;;5012550;28;20657;-77
2022/01/02 02:29:01;;;;;;;4.93;4.43;;;12.30;99.90;;;;;;5013889;28;20814;-77
2022/01/02 02:31:29;;;;;;;6.10;5.50;;;12.30;99.90;;;;;;5005044;28;20643;-78
2022/01/02 02:33:55;;;;;;;8.20;4.90;;;12.30;99.90;;;;;;4994336;28;20636;-78
2022/01/02 02:36:24;;;;;;;7.90;4.87;;;12.10;99.90;;;;;;4995837;28;20636;-77
2022/01/02 02:39:27;;;;;;;5.97;4.60;;;12.20;99.90;;;;;;4982086;28;20240;-77
2022/01/02 02:41:54;;;;;;;8.97;4.97;;;12.30;99.90;;;;;;5009216;28;20623;-78
2022/01/02 02:44:38;;;;;;;5.37;4.83;;;12.20;99.90;;;;;;5010172;28;20605;-77
2022/01/02 02:50:02;;;;;;;9.40;4.33;;;12.20;99.90;;;;;;4977011;28;20647;-77
2022/01/02 02:52:42;;;;;;;8.00;5.20;;;12.30;99.90;;;;;;4993139;28;20787;-78
2022/01/02 02:55:12;;;;;;;4.80;4.13;;;12.40;99.90;;;;;;5007861;28;20674;-77
2022/01/02 02:57:58;;;;;;;6.20;5.13;;;12.20;99.90;;;;;;4985985;28;20656;-77
2022/01/02 03:00:43;;;;;;;8.40;5.40;;;12.20;99.90;;;;;;4979272;28;21222;-78
2022/01/02 03:03:13;;;;;;;6.37;5.03;;;12.10;99.90;;;;;;4999570;28;20923;-77
2022/01/02 03:05:50;;;;;;;6.63;5.30;;;12.10;99.90;;;;;;5006062;28;20663;-76
2022/01/02 03:08:27;;;;;;;6.67;5.90;;;12.10;99.90;;;;;;5003570;28;20625;-78
2022/01/02 03:10:54;;;;;;;5.60;5.03;;;11.90;99.90;;;;;;5009348;28;20647;-78
2022/01/02 03:13:32;;;;;;;7.10;5.70;;;12.00;99.90;;;;;;5004125;28;20634;-78
2022/01/02 03:16:16;;;;;;;5.80;5.10;;;12.00;99.90;;;;;;4999593;28;20640;-78
2022/01/02 03:18:45;;;;;;;6.10;5.53;;;12.00;99.90;;;;;;5002330;28;21171;-76
2022/01/02 03:21:14;;;;;;;6.47;5.50;;;12.20;99.90;;;;;;5002792;28;20608;-77
2022/01/02 03:23:42;;;;;;;5.30;4.80;;;12.00;99.90;;;;;;5006043;28;20631;-77
2022/01/02 03:26:12;;;;;;;6.60;5.47;;;12.00;99.90;;;;;;4992940;28;20644;-77
2022/01/02 03:28:38;;;;;;;6.23;5.53;;;12.00;99.90;;;;;;5001868;28;20616;-77
2022/01/02 03:31:04;;;;;;;6.27;5.30;;;12.00;99.90;;;;;;4999034;28;20619;-77
2022/01/02 03:33:30;;;;;;;6.57;5.97;;;11.90;99.90;;;;;;4986955;28;20720;-76
2022/01/02 03:35:55;;;;;;;7.40;5.80;;;11.90;99.90;;;;;;4989366;28;20188;-76
2022/01/02 03:38:23;;;;;;;7.07;5.67;;;11.90;99.90;;;;;;4982547;28;20296;-77
2022/01/02 03:40:56;;;;;;;6.20;5.60;;;11.90;99.90;;;;;;5003141;28;20185;-76
2022/01/02 03:43:27;;;;;;;7.80;6.73;;;11.90;99.90;;;;;;4984043;28;20736;-78
2022/01/02 03:45:53;;;;;;;6.30;5.70;;;11.90;99.90;;;;;;4988851;28;20636;-76
2022/01/02 03:48:21;;;;;;;9.40;6.30;;;11.80;99.90;;;;;;4984802;28;20621;-76
2022/01/02 03:50:47;;;;;;;7.13;6.37;;;11.70;99.90;;;;;;4989822;28;20668;-76
2022/01/02 03:53:17;;;;;;;6.60;5.80;;;11.80;99.90;;;;;;5000000;28;20640;-76
2022/01/02 03:55:43;;;;;;;8.30;6.53;;;11.80;99.90;;;;;;5002127;28;20197;-77
2022/01/02 03:58:08;;;;;;;9.20;6.63;;;11.70;99.90;;;;;;5003653;28;20672;-77
2022/01/02 04:00:34;;;;;;;8.33;6.03;;;11.80;99.90;;;;;;4983019;28;20317;-76
2022/01/02 04:03:00;;;;;;;9.00;7.10;;;11.80;99.90;;;;;;4983879;28;20192;-76
2022/01/02 04:05:25;;;;;;;6.53;5.87;;;11.80;99.90;;;;;;4983567;28;20192;-76
2022/01/02 04:07:53;;;;;;;8.40;6.10;;;11.70;99.90;;;;;;4982821;28;20206;-76
2022/01/02 04:10:19;;;;;;;8.10;7.13;;;11.80;99.90;;;;;;5000606;28;20217;-76
2022/01/02 04:12:45;;;;;;;8.93;7.10;;;11.80;99.90;;;;;;4982937;28;20620;-77
2022/01/02 04:15:14;;;;;;;7.37;6.63;;;11.90;99.90;;;;;;5000058;28;20420;-76
2022/01/02 04:17:40;;;;;;;9.13;7.20;;;11.80;99.90;;;;;;4998676;28;20655;-76
2022/01/02 04:20:10;;;;;;;8.50;7.10;;;11.60;99.90;;;;;;4989371;28;20694;-76
2022/01/02 04:22:39;;;;;;;11.13;7.63;;;11.80;99.90;;;;;;4983944;28;20626;-76
2022/01/02 04:25:05;;;;;;;7.10;6.20;;;11.80;99.90;;;;;;5000094;28;20613;-77
2022/01/02 04:27:31;;;;;;;8.73;7.03;;;11.80;99.90;;;;;;5002373;28;20655;-76
2022/01/02 04:29:57;;;;;;;12.43;7.63;;;11.80;99.90;;;;;;4999618;28;21165;-77
2022/01/02 04:32:22;;;;;;;9.37;8.20;;;11.80;99.90;;;;;;5002486;28;20632;-76
2022/01/02 04:34:56;;;;;;;10.40;8.03;;;11.80;99.90;;;;;;4990110;28;20190;-77
2022/01/02 04:37:22;;;;;;;9.10;8.20;;;11.80;99.90;;;;;;4989986;28;20205;-77
2022/01/02 04:39:47;;;;;;;9.07;8.00;;;11.70;99.90;;;;;;5001224;28;20675;-78
2022/01/02 04:42:13;;;;;;;10.43;7.77;;;11.70;99.90;;;;;;4989392;28;20656;-75
2022/01/02 04:44:39;;;;;;;10.83;8.60;;;11.70;99.90;;;;;;5002704;28;20273;-76
2022/01/02 04:47:04;;;;;;;8.90;8.00;;;11.70;99.90;;;;;;4990983;28;20218;-77
2022/01/02 04:49:30;;;;;;;11.70;8.73;;;11.70;99.90;;;;;;5003254;28;20218;-77
2022/01/02 04:51:58;;;;;;;11.27;8.30;;;11.70;99.90;;;;;;4991912;28;20224;-76
2022/01/02 04:54:24;;;;;;;9.57;8.13;;;11.70;99.90;;;;;;5003488;28;20584;-77
2022/01/02 04:56:50;;;;;;;9.27;7.90;;;11.70;99.90;;;;;;4992824;28;20634;-77
2022/01/02 04:59:15;;;;;;;9.87;7.67;;;11.70;99.90;;;;;;4991267;28;20323;-78
2022/01/02 05:01:42;;;;;;;10.30;8.77;;;11.70;99.90;;;;;;4982884;28;20259;-77
2022/01/02 05:04:08;;;;;;;9.50;8.07;;;11.80;99.90;;;;;;5000797;28;20261;-77
2022/01/02 05:06:33;;;;;;;11.10;8.70;;;11.80;99.90;;;;;;4987582;28;20712;-77
2022/01/02 05:09:05;;;;;;;9.37;8.30;;;11.80;99.90;;;;;;4986158;28;20217;-77
2022/01/02 05:11:33;;;;;;;9.17;8.27;;;11.80;99.90;;;;;;4985474;28;20279;-77
2022/01/02 05:13:58;;;;;;;9.07;8.17;;;11.80;99.90;;;;;;5001436;28;20624;-77
2022/01/02 05:16:24;;;;;;;10.70;7.73;;;11.80;99.90;;;;;;4983321;28;20652;-78
2022/01/02 05:18:52;;;;;;;10.10;9.10;;;11.80;99.90;;;;;;4997798;28;20339;-77
2022/01/02 05:21:18;;;;;;;12.30;9.40;;;11.80;99.90;;;;;;4989924;28;20240;-78
2022/01/02 05:23:44;;;;;;;12.70;8.60;;;11.80;99.90;;;;;;4999320;28;21096;-77
2022/01/02 05:26:09;;;;;;;9.50;8.50;;;11.80;99.90;;;;;;4979165;28;20236;-76
2022/01/02 05:28:35;;;;;;;9.40;8.50;;;11.80;99.90;;;;;;4999389;28;20194;-76
2022/01/02 05:31:03;;;;;;;11.90;8.70;;;11.70;99.90;;;;;;5001233;28;20182;-77
2022/01/02 05:33:31;;;;;;;9.30;8.30;;;11.70;99.90;;;;;;5002611;28;20228;-77
2022/01/02 05:35:57;;;;;;;10.30;9.17;;;11.70;99.90;;;;;;4988507;28;20781;-76
2022/01/02 05:38:27;;;;;;;10.73;8.77;;;11.70;99.90;;;;;;4988849;28;20668;-76
2022/01/02 05:40:56;;;;;;;10.60;9.60;;;11.80;99.90;;;;;;4992087;28;20542;-77
2022/01/02 05:43:21;;;;;;;10.40;9.40;;;11.80;99.90;;;;;;4989896;28;20663;-78
2022/01/02 05:45:47;;;;;;;10.50;9.50;;;11.90;99.90;;;;;;5001001;28;20720;-76
2022/01/02 05:48:12;;;;;;;10.93;9.83;;;11.80;99.90;;;;;;4998870;28;20209;-77
2022/01/02 05:50:38;;;;;;;16.40;11.37;;;11.80;99.90;;;;;;4999258;28;20283;-77
2022/01/02 05:53:04;;;;;;;11.83;10.60;;;11.70;99.90;;;;;;5000544;28;20230;-77
2022/01/02 05:55:29;;;;;;;12.27;10.27;;;11.90;99.90;;;;;;4983999;28;20197;-76
2022/01/02 05:57:55;;;;;;;11.30;10.00;;;11.70;99.90;;;;;;4988457;28;21591;-76
2022/01/02 06:00:23;;;;;;;11.10;10.00;;;11.80;99.90;;;;;;4986970;28;20222;-76
2022/01/02 06:02:51;;;;;;;14.40;10.03;;;11.80;99.90;;;;;;4992033;28;20192;-76
2022/01/02 06:05:16;;;;;;;11.37;10.20;;;11.80;99.90;;;;;;4990540;28;20618;-77
2022/01/02 06:07:44;;;;;;;11.33;9.70;;;11.80;99.90;;;;;;5006109;28;20652;-76
2022/01/02 06:10:12;;;;;;;12.47;10.47;;;11.80;99.90;;;;;;5022533;28;20246;-76
2022/01/02 06:12:37;;;;;;;11.50;9.40;;;11.80;99.90;;;;;;5012569;28;20601;-76
2022/01/02 06:15:03;;;;;;;11.70;9.17;;;11.80;99.90;;;;;;5007792;28;20681;-76
2022/01/02 06:17:31;;;;;;;14.03;8.40;;;11.90;99.90;;;;;;4987080;28;20233;-76
2022/01/02 06:19:57;;;;;;;11.00;9.90;;;11.80;99.90;;;;;;4985530;28;20659;-75
2022/01/02 06:22:22;;;;;;;10.23;9.10;;;11.80;99.90;;;;;;5006832;28;20617;-77
2022/01/02 06:24:50;;;;;;;10.87;9.40;;;11.90;99.90;;;;;;5006644;28;20186;-77
2022/01/02 06:27:25;;;;;;;12.30;9.17;;;11.80;99.90;;;;;;4992014;28;20274;-76
2022/01/02 06:29:54;;;;;;;11.70;9.80;;;11.90;99.90;;;;;;4980174;28;20671;-76
2022/01/02 06:32:22;;;;;;;12.53;10.03;;;11.90;99.90;;;;;;4998248;28;20604;-76
2022/01/02 06:34:50;;;;;;;12.17;9.47;;;11.90;99.90;;;;;;4986707;28;20620;-76
2022/01/02 06:37:16;;;;;;;13.47;9.87;;;11.80;99.90;;;;;;4982664;28;20644;-77
2022/01/02 06:39:41;;;;;;;13.63;10.60;;;11.80;99.90;;;;;;4996017;28;21241;-76
2022/01/02 06:42:07;;;;;;;10.63;9.63;;;11.80;99.90;;;;;;4987906;28;20247;-76
2022/01/02 06:44:33;;;;;;;11.60;10.03;;;11.80;99.90;;;;;;5002444;28;20272;-75
2022/01/02 06:46:58;;;;;;;14.80;10.77;;;11.80;99.90;;;;;;4984660;28;20221;-76
2022/01/02 06:49:24;;;;;;;14.97;10.27;;;11.80;99.90;;;;;;4986666;28;20218;-76
2022/01/02 06:51:58;;;;;;;12.50;10.00;;;11.90;99.90;;;;;;5001153;28;20635;-76
2022/01/02 06:54:23;;;;;;;10.70;8.43;;;11.90;99.90;;;;;;4985588;28;20193;-76
2022/01/02 06:56:49;;;;;;;10.40;9.30;;;11.90;99.90;;;;;;4985854;28;20660;-76
2022/01/02 06:59:14;;;;;;;9.37;8.00;;;12.00;99.90;;;;;;5003388;28;20237;-77
2022/01/02 07:01:40;;;;;;;9.47;8.13;;;11.90;99.90;;;;;;4984378;28;20228;-76
2022/01/02 07:04:05;;;;;;;8.90;8.00;;;11.90;99.90;;;;;;4993621;28;21496;-76
2022/01/02 07:06:31;;;;;;;9.83;7.70;;;11.90;99.90;;;;;;4992047;28;20209;-76
2022/01/02 07:08:57;;;;;;;8.50;7.63;;;11.90;99.90;;;;;;4996159;28;20252;-76
2022/01/02 07:11:22;;;;;;;9.07;8.10;;;11.90;99.90;;;;;;5005451;28;20190;-76
2022/01/02 07:13:48;;;;;;;10.63;7.90;;;11.90;99.90;;;;;;4988451;28;20197;-76
2022/01/02 07:16:13;;;;;;;10.90;8.80;;;11.90;99.90;;;;;;5005292;28;20228;-76
2022/01/02 07:18:39;;;;;;;10.60;9.50;;;11.90;99.90;;;;;;5002061;28;20211;-75
2022/01/02 07:21:04;;;;;;;11.13;10.03;;;11.90;99.90;;;;;;5005976;28;20220;-76
2022/01/02 07:23:30;;;;;;;10.63;9.57;;;11.90;99.90;;;;;;4988599;28;20220;-76
2022/01/02 07:25:57;;;;;;;11.40;9.57;;;11.90;99.90;;;;;;5002548;28;20209;-76
2022/01/02 07:28:22;;;;;;;11.00;9.33;;;12.00;99.90;;;;;;4995293;28;20296;-76
2022/01/02 07:30:48;;;;;;;11.10;9.50;;;12.00;99.90;;;;;;4981213;28;20723;-76
2022/01/02 07:33:14;;;;;;;11.13;9.53;;;12.00;99.90;;;;;;4987241;28;20224;-76
2022/01/02 07:35:39;;;;;;;12.73;9.13;;;12.00;99.90;;;;;;4994181;28;22972;-76
2022/01/02 07:38:05;;;;;;;12.67;10.13;;;12.00;99.90;;;;;;5005104;28;20221;-75
2022/01/02 07:40:30;;;;;;;11.70;9.07;;;12.10;99.90;;;;;;4987265;28;20218;-76
2022/01/02 07:42:56;;;;;;;10.70;9.60;;;12.10;99.90;;;;;;4989337;28;20244;-76
2022/01/02 07:45:22;;;;;;;10.33;9.10;;;12.10;99.90;;;;;;4994223;28;21106;-76
2022/01/02 07:47:47;;;;;;;10.60;9.10;;;12.10;99.90;;;;;;4985029;28;20266;-76
2022/01/02 07:50:15;;;;;;;13.37;9.87;;;12.10;99.90;;;;;;4998436;28;21100;-76
2022/01/02 07:52:43;;;;;;;13.30;9.37;;;12.10;99.90;;;;;;4981642;28;20197;-76
2022/01/02 07:55:08;;;;;;;9.63;8.30;;;12.10;99.90;;;;;;4985240;28;20628;-76
2022/01/02 07:57:35;;;;;;;9.77;8.77;;;12.10;99.90;;;;;;4986807;28;21061;-75
2022/01/02 08:00:01;;;;;;;13.93;9.17;;;12.10;99.90;;;;;;5000510;28;20245;-76
2022/01/02 08:02:26;;;;;;;12.23;8.83;;;12.10;99.90;;;;;;4982816;28;20655;-76
2022/01/02 08:04:52;;;;;;;12.47;9.20;;;12.10;99.90;;;;;;5000380;28;20196;-75
2022/01/02 08:07:17;;;;;;;12.43;8.67;;;12.10;99.90;;;;;;4989708;28;20291;-76
2022/01/02 08:09:43;;;;;;;13.83;8.83;;;12.10;99.90;;;;;;4985558;28;20217;-77
2022/01/02 08:12:08;;;;;;;12.27;8.80;;;12.20;99.90;;;;;;4999523;28;20288;-77
2022/01/02 08:14:34;;;;;;;9.90;8.90;;;12.20;99.90;;;;;;5003795;28;20258;-75
2022/01/02 08:16:59;;;;;;;12.03;8.17;;;12.20;99.90;;;;;;5003046;28;20213;-76
2022/01/02 08:19:25;;;;;;;9.00;8.10;;;12.20;99.90;;;;;;4989783;28;20229;-76
2022/01/02 08:21:51;;;;;;;10.20;7.63;;;12.20;99.90;;;;;;4988703;28;20276;-75
2022/01/02 08:24:16;;;;;;;10.77;7.83;;;12.30;99.90;;;;;;4994741;28;20201;-76
2022/01/02 08:26:42;;;;;;;13.57;8.37;;;12.30;99.90;;;;;;4995729;28;20241;-75
2022/01/02 08:29:07;;;;;;;13.27;8.60;;;12.30;99.90;;;;;;4983735;28;20316;-76
2022/01/02 08:31:33;;;;;;;12.30;8.13;;;12.20;99.90;;;;;;4990441;28;20222;-77
2022/01/02 08:33:59;;;;;;;11.10;6.70;;;12.20;99.90;;;;;;4985527;28;20784;-77
2022/01/02 08:36:25;;;;;;;11.50;7.60;;;12.20;99.90;;;;;;4989047;28;20640;-76
2022/01/02 08:38:51;;;;;;;9.73;7.07;;;12.40;99.90;;;;;;4997871;28;20225;-75
2022/01/02 08:41:17;;;;;;;8.07;6.10;;;12.30;99.90;;;;;;4997901;28;20209;-76
2022/01/02 08:43:43;;;;;;;9.60;7.47;;;12.30;99.90;;;;;;4980125;28;20216;-76
2022/01/02 08:46:09;;;;;;;8.17;7.10;;;12.20;99.90;;;;;;4986056;28;21257;-76
2022/01/02 08:48:35;;;;;;;11.23;7.30;;;12.30;99.90;;;;;;4998270;28;20711;-76
2022/01/02 08:51:01;;;;;;;8.90;6.30;;;12.40;99.90;;;;;;4996078;28;20662;-75
2022/01/02 08:53:32;;;;;;;10.43;6.67;;;12.30;99.90;;;;;;5001399;28;20205;-76
2022/01/02 08:55:58;;;;;;;13.30;6.90;;;12.30;99.90;;;;;;4988374;28;20658;-76
2022/01/02 08:58:23;;;;;;;7.47;6.10;;;12.40;99.90;;;;;;4999676;28;20653;-80
2022/01/02 09:00:49;;;;;;;9.70;6.33;;;12.30;99.90;;;;;;4989021;28;20201;-76
2022/01/02 09:03:15;;;;;;;9.37;6.50;;;12.30;99.90;;;;;;4989977;28;20186;-76
2022/01/02 09:05:42;;;;;;;8.90;5.70;;;12.40;99.90;;;;;;4992582;28;20194;-75
2022/01/02 09:08:07;;;;;;;7.67;5.50;;;12.40;99.90;;;;;;4985214;28;20656;-76
2022/01/02 09:10:33;;;;;;;8.50;6.03;;;12.50;99.90;;;;;;4999038;28;20640;-76
2022/01/02 09:12:59;;;;;;;10.33;6.60;;;12.50;99.90;;;;;;4994414;28;20687;-75
2022/01/02 09:15:24;;;;;;;9.20;6.00;;;12.50;99.90;;;;;;4998708;28;20185;-76
2022/01/02 09:17:50;;;;;;;8.30;5.57;;;12.50;99.90;;;;;;4985369;28;20759;-76
2022/01/02 09:20:20;;;;;;;9.87;5.30;;;12.50;99.90;;;;;;4978061;28;20238;-76
2022/01/02 09:22:47;;;;;;;9.00;5.83;;;12.50;99.90;;;;;;4985983;28;20182;-75
2022/01/02 09:25:13;;;;;;;7.30;5.00;;;12.50;99.90;;;;;;4993681;28;20634;-75
2022/01/02 09:27:40;;;;;;;7.50;5.47;;;12.50;99.90;;;;;;4997215;28;20678;-76
2022/01/02 09:30:07;;;;;;;9.03;5.70;;;12.60;99.90;;;;;;4997774;28;20291;-76
2022/01/02 09:32:35;;;;;;;6.40;4.87;;;12.60;99.90;;;;;;4996830;28;21275;-77
2022/01/02 09:35:02;;;;;;;7.20;4.63;;;12.60;99.90;;;;;;4998632;28;20600;-76
2022/01/02 09:37:28;;;;;;;5.40;4.50;;;12.60;99.90;;;;;;4989659;28;20698;-76
2022/01/02 09:39:54;;;;;;;8.27;5.30;;;12.60;99.90;;;;;;4973970;28;20636;-76
2022/01/02 09:42:19;;;;;;;9.37;5.00;;;12.70;99.90;;;;;;4977064;28;20186;-76
2022/01/02 09:44:45;;;;;;;7.07;5.63;;;12.70;99.90;;;;;;5002885;28;20198;-76
2022/01/02 09:47:12;;;;;;;5.77;4.67;;;12.70;99.90;;;;;;4981071;28;20212;-76
2022/01/02 09:49:39;;;;;;;8.47;4.80;;;12.70;99.90;;;;;;4995827;28;20225;-76
2022/01/02 09:52:05;;;;;;;11.07;5.03;;;12.70;99.90;;;;;;4998828;28;20621;-76
2022/01/02 09:54:34;;;;;;;7.60;5.33;;;12.80;99.90;;;;;;4998168;28;20609;-79
2022/01/02 09:57:02;;;;;;;9.07;4.83;;;12.80;99.90;;;;;;4982757;28;20648;-76
2022/01/02 09:59:27;;;;;;;7.27;4.83;;;12.80;99.90;;;;;;4981618;28;21262;-76
2022/01/02 10:01:53;;;;;;;7.70;4.33;;;12.80;99.90;;;;;;4982239;28;20652;-75
2022/01/02 10:04:39;;;;;;;9.30;4.80;;;12.80;99.90;;;;;;4980329;28;20198;-76
2022/01/02 10:07:06;;;;;;;7.23;5.40;;;12.80;99.90;;;;;;4997543;28;20217;-76
2022/01/02 10:09:38;;;;;;;7.33;4.53;;;12.80;99.90;;;;;;4979532;28;20961;-76
2022/01/02 10:12:26;;;;;;;6.40;4.33;;;13.00;99.90;;;;;;4997998;28;20716;-77
2022/01/02 10:15:11;;;;;;;4.93;4.30;;;13.00;99.90;;;;;;4982967;28;20679;-76
2022/01/02 10:17:55;;;;;;;5.07;4.60;;;13.00;99.90;;;;;;4986520;28;21933;-74
2022/01/02 10:20:23;;;;;;;7.57;4.50;;;13.10;99.90;;;;;;4992590;28;20639;-78
2022/01/02 10:23:09;;;;;;;4.73;4.10;;;13.10;99.90;;;;;;5024589;28;20703;-77
2022/01/02 10:26:00;;;;;;;5.93;3.97;;;13.00;99.90;;;;;;4989411;28;20613;-76
2022/01/02 10:28:40;;;;;;;6.27;4.50;;;13.00;99.90;;;;;;4991910;28;20608;-75
2022/01/02 10:31:14;;;;;;;5.40;4.10;;;12.90;99.90;;;;;;4992887;28;20584;-76
2022/01/02 10:33:57;;;;;;;8.77;3.90;;;13.00;99.90;;;;;;4994805;28;21660;-76
2022/01/02 10:36:37;;;;;;;7.73;4.40;;;12.90;99.90;;;;;;4992036;28;20657;-75
2022/01/02 10:39:05;;;;;;;4.90;4.03;;;12.90;99.90;;;;;;4991064;28;20639;-76
2022/01/02 10:41:33;;;;;;;7.87;4.50;;;12.90;99.90;;;;;;4983539;28;20612;-75
2022/01/02 10:44:34;;;;;;;4.77;4.03;;;12.90;99.90;;;;;;4978491;28;20648;-76
2022/01/02 10:47:21;;;;;;;7.63;4.30;;;12.90;99.90;;;;;;4993372;28;20718;-76
2022/01/02 10:49:55;;;;;;;5.07;4.00;;;12.90;99.90;;;;;;4982207;28;20659;-77
2022/01/02 10:52:27;;;;;;;5.87;3.70;;;12.90;99.90;;;;;;4978675;28;20639;-76
2022/01/02 10:54:54;;;;;;;5.90;4.30;;;12.90;99.90;;;;;;4978459;28;20632;-76
2022/01/02 10:57:19;;;;;;;6.50;4.40;;;12.80;99.90;;;;;;5003297;28;20645;-76
2022/01/02 10:59:46;;;;;;;6.50;4.43;;;12.80;99.90;;;;;;5000905;28;20668;-76
2022/01/02 11:02:16;;;;;;;7.07;4.37;;;12.80;99.90;;;;;;5021018;28;20643;-76
2022/01/02 11:04:47;;;;;;;7.60;4.30;;;12.80;99.90;;;;;;5009635;28;20756;-78
2022/01/02 11:07:24;;;;;;;5.93;4.20;;;12.80;99.90;;;;;;4997975;28;21317;-76
2022/01/02 11:09:55;;;;;;;5.77;4.90;;;12.80;99.90;;;;;;5003200;28;20640;-78
2022/01/02 11:12:22;;;;;;;8.50;4.30;;;12.90;99.90;;;;;;5010391;28;20624;-77
2022/01/02 11:14:49;;;;;;;6.33;4.67;;;12.80;99.90;;;;;;4997790;28;20624;-77
2022/01/02 11:17:16;;;;;;;7.90;4.57;;;12.90;99.90;;;;;;5001207;28;20648;-76
2022/01/02 11:19:45;;;;;;;7.80;4.60;;;12.90;99.90;;;;;;4990408;28;20679;-78
2022/01/02 11:22:17;;;;;;;8.07;4.23;;;12.90;99.90;;;;;;4982037;28;20733;-79
2022/01/02 11:25:21;;;;;;;6.17;5.17;;;12.90;99.90;;;;;;4992983;28;20631;-78
2022/01/02 11:27:59;;;;;;;6.83;4.70;;;12.90;99.90;;;;;;4968747;28;20648;-79
2022/01/02 11:30:34;;;;;;;4.60;4.20;;;12.70;99.90;;;;;;5013838;28;20724;-78
2022/01/02 11:33:10;;;;;;;7.53;4.47;;;12.90;99.90;;;;;;5001453;28;21054;-80
2022/01/02 11:35:38;;;;;;;5.60;4.40;;;12.80;99.90;;;;;;4997972;28;21013;-77
2022/01/02 11:38:06;;;;;;;5.87;4.93;;;12.90;99.90;;;;;;4997724;28;20656;-76
2022/01/02 11:40:56;;;;;;;5.47;4.70;;;12.80;99.90;;;;;;4995973;28;20628;-76
2022/01/02 11:43:46;;;;;;;5.20;4.53;;;12.90;99.90;;;;;;4977748;28;20632;-76
2022/01/02 11:46:38;;;;;;;7.67;4.80;;;12.90;99.90;;;;;;4983713;28;20659;-76
2022/01/02 11:49:15;;;;;;;8.10;4.80;;;12.90;99.90;;;;;;4967368;28;20638;-76
2022/01/02 11:51:47;;;;;;;7.93;4.90;;;12.80;99.90;;;;;;4992971;28;20616;-77
2022/01/02 11:54:28;;;;;;;5.83;4.57;;;12.80;99.90;;;;;;4992402;28;20623;-76
2022/01/02 11:57:25;;;;;;;7.47;5.40;;;12.80;99.90;;;;;;4989409;28;21482;-77
2022/01/02 11:59:52;;;;;;;7.00;5.10;;;12.90;99.90;;;;;;4966311;28;21428;-77
2022/01/02 12:02:26;;;;;;;5.40;4.90;;;12.90;99.90;;;;;;4985642;28;20632;-77
2022/01/02 12:05:11;;;;;;;6.30;4.87;;;12.90;99.90;;;;;;4982954;28;20661;-76
2022/01/02 12:07:45;;;;;;;5.10;4.60;;;12.90;99.90;;;;;;4966406;28;20656;-76
2022/01/02 12:10:16;;;;;;;9.53;5.63;;;13.00;99.90;;;;;;4993424;28;21269;-76
2022/01/02 12:13:05;;;;;;;6.50;4.77;;;12.90;99.90;;;;;;4995082;28;20621;-77
2022/01/02 12:15:31;;;;;;;6.50;5.03;;;13.00;99.90;;;;;;4994298;28;21195;-77
2022/01/02 12:18:30;;;;;;;7.97;5.60;;;12.90;99.90;;;;;;4991597;28;20757;-77
2022/01/02 12:21:04;;;;;;;6.93;4.93;;;12.90;99.90;;;;;;4985363;28;20217;-77
2022/01/02 12:23:30;;;;;;;6.60;5.20;;;12.90;99.90;;;;;;4993733;28;20568;-77
2022/01/02 12:25:59;;;;;;;8.00;5.50;;;12.90;99.90;;;;;;5000861;28;20616;-77
2022/01/02 12:28:25;;;;;;;6.20;5.10;;;12.90;99.90;;;;;;4992324;28;20617;-77
2022/01/02 12:30:54;;;;;;;8.90;4.93;;;12.90;99.90;;;;;;4993503;28;20613;-76
2022/01/02 12:33:24;;;;;;;8.70;5.03;;;13.00;99.90;;;;;;4984236;28;20629;-77
2022/01/02 12:35:50;;;;;;;8.80;5.37;;;12.90;99.90;;;;;;4995265;28;20725;-77
2022/01/02 12:38:16;;;;;;;8.17;5.70;;;12.90;99.90;;;;;;4996063;28;20742;-77
2022/01/02 12:40:41;;;;;;;8.80;5.87;;;12.90;99.90;;;;;;4983752;28;20181;-77
2022/01/02 12:43:09;;;;;;;7.27;5.93;;;12.80;99.90;;;;;;4997684;28;20673;-75
2022/01/02 12:45:35;;;;;;;8.60;5.67;;;12.90;99.90;;;;;;4977193;28;20272;-75
2022/01/02 12:48:01;;;;;;;9.83;7.10;;;12.90;99.90;;;;;;4976969;28;20748;-73
2022/01/02 12:50:28;;;;;;;9.10;6.27;;;13.00;99.90;;;;;;4983177;28;20568;-75
2022/01/02 12:52:56;;;;;;;7.33;5.37;;;13.00;99.90;;;;;;4987230;28;20181;-75
2022/01/02 12:55:22;;;;;;;6.60;5.70;;;13.00;99.90;;;;;;5000844;28;21202;-76
2022/01/02 12:57:48;;;;;;;9.83;5.57;;;12.90;99.90;;;;;;4977545;28;20632;-76